createdAt,value
2018-08-07T00:00:41.749Z,99.90
2018-08-07T00:03:09.405Z,99.90
2018-08-07T00:05:37.168Z,99.90
2018-08-07T00:08:06.092Z,99.90
2018-08-07T00:10:33.596Z,99.90
2018-08-07T00:13:01.106Z,99.90
2018-08-07T00:15:28.697Z,99.90
2018-08-07T00:17:56.352Z,99.90
2018-08-07T00:20:23.945Z,99.90
2018-08-07T00:22:51.548Z,99.90
2018-08-07T00:25:19.069Z,99.90
2018-08-07T00:27:46.654Z,99.90
2018-08-07T00:30:15.511Z,99.90
2018-08-07T00:32:43.126Z,99.90
2018-08-07T00:35:14.632Z,99.90
2018-08-07T00:37:42.186Z,99.90
2018-08-07T00:40:12.294Z,99.90
2018-08-07T00:42:40.245Z,99.90
2018-08-07T00:45:09.986Z,99.90
2018-08-07T00:47:37.590Z,99.90
2018-08-07T00:50:08.279Z,99.90
2018-08-07T00:52:35.912Z,99.90
2018-08-07T00:55:04.236Z,99.90
2018-08-07T00:57:31.737Z,99.90
2018-08-07T00:59:59.332Z,99.90
2018-08-07T01:02:26.969Z,99.90
2018-08-07T01:04:54.444Z,99.90
2018-08-07T01:07:22.120Z,99.90
2018-08-07T01:09:49.704Z,99.90
2018-08-07T01:12:17.322Z,99.90
2018-08-07T01:14:44.930Z,99.90
2018-08-07T01:17:12.536Z,99.90
2018-08-07T01:19:40.078Z,99.90
2018-08-07T01:22:07.748Z,99.90
2018-08-07T01:24:35.353Z,99.90
2018-08-07T01:27:03.030Z,99.90
2018-08-07T01:29:30.569Z,99.90
2018-08-07T01:31:58.344Z,99.90
2018-08-07T01:34:25.848Z,99.90
2018-08-07T01:36:53.468Z,99.90
2018-08-07T01:39:21.013Z,99.90
2018-08-07T01:41:48.546Z,99.90
2018-08-07T01:44:16.160Z,99.90
2018-08-07T01:46:43.701Z,99.90
2018-08-07T01:49:11.272Z,99.90
2018-08-07T01:51:38.948Z,99.90
2018-08-07T01:54:06.532Z,99.90
2018-08-07T01:56:34.096Z,99.90
2018-08-07T01:59:01.679Z,99.90
2018-08-07T02:01:29.379Z,99.90
2018-08-07T02:03:56.952Z,99.90
2018-08-07T02:06:24.481Z,99.90
2018-08-07T02:08:52.093Z,99.90
2018-08-07T02:11:19.600Z,99.90
2018-08-07T02:13:47.112Z,99.90
2018-08-07T02:16:14.611Z,99.90
2018-08-07T02:18:42.084Z,99.90
2018-08-07T02:21:09.764Z,99.90
2018-08-07T02:23:37.353Z,99.90
2018-08-07T02:26:05.115Z,99.90
2018-08-07T02:28:32.780Z,99.90
2018-08-07T02:31:00.358Z,99.90
2018-08-07T02:33:27.921Z,99.90
2018-08-07T02:35:55.545Z,99.90
2018-08-07T02:38:23.143Z,99.90
2018-08-07T02:40:50.692Z,99.90
2018-08-07T02:43:18.253Z,99.90
2018-08-07T02:45:45.738Z,99.90
2018-08-07T02:48:13.290Z,99.90
2018-08-07T02:50:40.813Z,99.90
2018-08-07T02:53:08.419Z,99.90
2018-08-07T02:55:35.907Z,99.90
2018-08-07T02:58:03.919Z,99.90
2018-08-07T03:00:35.329Z,99.90
2018-08-07T03:03:02.961Z,99.90
2018-08-07T03:05:30.520Z,99.90
2018-08-07T03:07:58.233Z,99.90
2018-08-07T03:10:25.846Z,99.90
2018-08-07T03:12:53.584Z,99.90
2018-08-07T03:15:21.536Z,99.90
2018-08-07T03:17:49.674Z,99.90
2018-08-07T03:20:17.772Z,99.90
2018-08-07T03:22:45.648Z,99.90
2018-08-07T03:25:13.882Z,99.90
2018-08-07T03:27:42.372Z,99.90
2018-08-07T03:30:12.372Z,99.90
2018-08-07T03:32:39.957Z,99.90
2018-08-07T03:35:07.543Z,99.90
2018-08-07T03:37:35.579Z,99.90
2018-08-07T03:40:04.448Z,99.90
2018-08-07T03:42:32.082Z,99.90
2018-08-07T03:44:59.590Z,99.90
2018-08-07T03:47:27.169Z,99.90
2018-08-07T03:49:54.660Z,99.90
2018-08-07T03:52:22.229Z,99.90
2018-08-07T03:54:49.922Z,99.90
2018-08-07T03:57:17.470Z,99.90
2018-08-07T03:59:45.061Z,99.90
2018-08-07T04:02:12.600Z,99.90
2018-08-07T04:04:40.158Z,99.90
2018-08-07T04:07:07.697Z,99.90
2018-08-07T04:09:35.193Z,99.90
2018-08-07T04:12:02.749Z,99.90
2018-08-07T04:14:30.257Z,99.90
2018-08-07T04:16:57.994Z,99.90
2018-08-07T04:19:27.100Z,99.90
2018-08-07T04:21:55.690Z,99.90
2018-08-07T04:24:23.574Z,99.90
2018-08-07T04:26:51.163Z,99.90
2018-08-07T04:29:18.748Z,99.90
2018-08-07T04:31:46.604Z,99.90
2018-08-07T04:34:19.156Z,99.90
2018-08-07T04:36:47.088Z,99.90
2018-08-07T04:39:14.642Z,99.90
2018-08-07T04:41:42.421Z,99.90
2018-08-07T04:44:10.251Z,99.90
2018-08-07T04:46:37.927Z,99.90
2018-08-07T04:49:05.747Z,99.90
2018-08-07T04:51:33.474Z,99.90
2018-08-07T04:54:01.162Z,99.90
2018-08-07T04:56:29.041Z,99.90
2018-08-07T04:58:56.622Z,99.90
2018-08-07T05:01:24.333Z,99.90
2018-08-07T05:03:51.919Z,99.90
2018-08-07T05:06:19.554Z,99.90
2018-08-07T05:08:47.437Z,99.90
2018-08-07T05:11:15.214Z,99.90
2018-08-07T05:13:46.493Z,99.90
2018-08-07T05:18:41.671Z,99.90
2018-08-07T05:21:09.341Z,99.90
2018-08-07T05:23:37.155Z,99.90
2018-08-07T05:26:04.942Z,99.90
2018-08-07T05:28:32.645Z,99.90
2018-08-07T05:31:00.881Z,99.90
2018-08-07T05:33:28.502Z,99.90
2018-08-07T05:35:56.439Z,99.90
2018-08-07T05:38:24.252Z,99.90
2018-08-07T05:40:51.844Z,99.90
2018-08-07T05:43:19.456Z,99.90
2018-08-07T05:45:47.102Z,99.90
2018-08-07T05:48:14.690Z,99.90
2018-08-07T05:53:10.335Z,99.90
2018-08-07T05:55:37.937Z,99.90
2018-08-07T05:58:12.239Z,99.90
2018-08-07T06:00:40.073Z,99.90
2018-08-07T06:03:07.721Z,99.90
2018-08-07T06:05:35.568Z,99.90
2018-08-07T06:08:03.110Z,99.90
2018-08-07T06:10:30.681Z,99.90
2018-08-07T06:12:58.335Z,99.90
2018-08-07T06:15:25.958Z,98.90
2018-08-07T06:17:53.633Z,98.90
2018-08-07T06:20:21.280Z,98.20
2018-08-07T06:22:48.876Z,97.80
2018-08-07T06:25:16.500Z,98.00
2018-08-07T06:27:44.052Z,97.10
2018-08-07T06:30:17.240Z,96.60
2018-08-07T06:32:45.569Z,95.80
2018-08-07T06:35:13.226Z,96.50
2018-08-07T06:37:40.825Z,96.10
2018-08-07T06:40:10.290Z,96.40
2018-08-07T06:42:38.030Z,95.80
2018-08-07T06:45:06.518Z,95.20
2018-08-07T06:47:34.249Z,95.70
2018-08-07T06:50:01.879Z,95.00
2018-08-07T06:52:29.444Z,95.40
2018-08-07T06:54:57.152Z,95.50
2018-08-07T06:57:24.746Z,95.10
2018-08-07T06:59:52.260Z,94.10
2018-08-07T07:02:19.976Z,93.50
2018-08-07T07:04:47.453Z,94.60
2018-08-07T07:07:14.926Z,93.90
2018-08-07T07:09:42.571Z,93.80
2018-08-07T07:12:10.193Z,94.00
2018-08-07T07:14:37.820Z,94.20
2018-08-07T07:17:05.408Z,93.70
2018-08-07T07:19:32.903Z,93.00
2018-08-07T07:22:00.408Z,92.80
2018-08-07T07:24:27.936Z,93.40
2018-08-07T07:26:55.577Z,91.90
2018-08-07T07:29:23.051Z,91.50
2018-08-07T07:31:50.589Z,92.80
2018-08-07T07:34:18.176Z,92.40
2018-08-07T07:36:45.809Z,91.30
2018-08-07T07:39:13.380Z,92.60
2018-08-07T07:41:41.043Z,91.90
2018-08-07T07:44:08.667Z,91.40
2018-08-07T07:46:36.283Z,90.80
2018-08-07T07:49:03.854Z,90.20
2018-08-07T07:51:31.420Z,91.90
2018-08-07T07:53:59.412Z,91.60
2018-08-07T07:56:27.040Z,91.60
2018-08-07T07:58:54.602Z,91.10
2018-08-07T08:01:22.240Z,89.40
2018-08-07T08:03:49.734Z,91.20
2018-08-07T08:06:17.135Z,90.00
2018-08-07T08:08:44.881Z,87.80
2018-08-07T08:11:12.469Z,86.80
2018-08-07T08:13:40.045Z,85.60
2018-08-07T08:16:07.715Z,87.20
2018-08-07T08:18:35.287Z,88.80
2018-08-07T08:21:02.905Z,87.40
2018-08-07T08:23:30.398Z,79.60
2018-08-07T08:25:57.864Z,88.30
2018-08-07T08:28:25.511Z,81.80
2018-08-07T08:30:53.127Z,84.00
2018-08-07T08:33:20.718Z,86.40
2018-08-07T08:35:48.298Z,86.80
2018-08-07T08:38:15.680Z,82.10
2018-08-07T08:40:43.213Z,85.00
2018-08-07T08:43:10.840Z,84.50
2018-08-07T08:48:06.564Z,80.50
2018-08-07T08:50:34.032Z,75.20
2018-08-07T08:55:29.481Z,76.30
2018-08-07T08:57:57.162Z,81.00
2018-08-07T09:00:29.829Z,80.90
2018-08-07T09:02:59.945Z,81.60
2018-08-07T09:05:27.500Z,83.80
2018-08-07T09:07:55.024Z,82.20
2018-08-07T09:10:27.247Z,77.00
2018-08-07T09:12:55.389Z,75.20
2018-08-07T09:15:22.948Z,77.80
2018-08-07T09:17:50.524Z,78.40
2018-08-07T09:20:20.851Z,72.20
2018-08-07T09:22:48.456Z,69.50
2018-08-07T09:25:16.283Z,77.40
2018-08-07T09:27:44.037Z,74.00
2018-08-07T09:30:16.577Z,72.50
2018-08-07T09:32:45.420Z,73.50
2018-08-07T09:35:13.752Z,74.30
2018-08-07T09:37:48.053Z,76.00
2018-08-07T09:40:16.860Z,76.10
2018-08-07T09:42:45.757Z,71.50
2018-08-07T09:47:45.483Z,73.60
2018-08-07T09:52:41.117Z,70.60
2018-08-07T09:57:36.804Z,76.90
2018-08-07T10:00:10.914Z,71.70
2018-08-07T10:02:44.581Z,73.20
2018-08-07T10:05:12.258Z,64.70
2018-08-07T10:07:39.791Z,72.80
2018-08-07T10:10:07.452Z,62.00
2018-08-07T10:12:35.120Z,59.70
2018-08-07T10:15:02.777Z,67.40
2018-08-07T10:17:30.458Z,77.30
2018-08-07T10:19:58.012Z,73.10
2018-08-07T10:22:25.645Z,67.80
2018-08-07T10:24:53.184Z,70.60
2018-08-07T10:27:20.801Z,65.60
2018-08-07T10:29:48.495Z,63.60
2018-08-07T10:32:16.181Z,62.90
2018-08-07T10:34:43.723Z,67.90
2018-08-07T10:37:11.685Z,71.00
2018-08-07T10:39:39.258Z,64.30
2018-08-07T10:42:07.928Z,63.30
2018-08-07T10:44:35.558Z,69.50
2018-08-07T10:47:03.243Z,68.40
2018-08-07T10:49:30.735Z,61.40
2018-08-07T10:51:58.332Z,63.70
2018-08-07T10:56:53.555Z,70.60
2018-08-07T11:01:48.556Z,64.80
2018-08-07T11:04:16.102Z,61.30
2018-08-07T11:06:44.330Z,60.90
2018-08-07T11:09:11.845Z,69.50
2018-08-07T11:11:39.485Z,69.10
2018-08-07T11:14:06.988Z,64.30
2018-08-07T11:16:34.969Z,56.40
2018-08-07T11:19:02.564Z,62.00
2018-08-07T11:21:30.182Z,62.10
2018-08-07T11:23:57.762Z,60.70
2018-08-07T11:26:25.365Z,66.40
2018-08-07T11:28:52.986Z,61.10
2018-08-07T11:31:20.671Z,65.20
2018-08-07T11:33:54.529Z,61.40
2018-08-07T11:36:22.109Z,55.70
2018-08-07T11:38:50.216Z,61.20
2018-08-07T11:41:17.900Z,61.90
2018-08-07T11:43:45.677Z,60.80
2018-08-07T11:46:13.213Z,64.50
2018-08-07T11:48:40.843Z,58.90
2018-08-07T11:51:16.736Z,60.60
2018-08-07T11:53:44.584Z,61.10
2018-08-07T11:56:12.211Z,59.70
2018-08-07T11:58:43.169Z,59.50
2018-08-07T12:01:13.545Z,58.80
2018-08-07T12:03:41.724Z,55.40
2018-08-07T12:06:09.440Z,59.90
2018-08-07T12:08:37.378Z,65.80
2018-08-07T12:11:05.524Z,55.40
2018-08-07T12:13:43.638Z,52.20
2018-08-07T12:16:11.698Z,56.60
2018-08-07T12:18:39.396Z,55.80
2018-08-07T12:21:07.030Z,55.70
2018-08-07T12:24:10.912Z,58.10
2018-08-07T12:26:39.229Z,57.30
2018-08-07T12:29:06.858Z,57.40
2018-08-07T12:31:35.299Z,62.10
2018-08-07T12:34:03.221Z,56.10
2018-08-07T12:36:30.921Z,55.00
2018-08-07T12:38:58.982Z,59.40
2018-08-07T12:41:26.603Z,59.10
2018-08-07T12:43:54.498Z,54.90
2018-08-07T12:46:22.233Z,59.50
2018-08-07T12:48:49.976Z,54.90
2018-08-07T12:51:17.659Z,58.90
2018-08-07T12:53:45.545Z,58.10
2018-08-07T12:56:13.178Z,59.00
2018-08-07T12:58:40.916Z,60.20
2018-08-07T13:01:08.733Z,59.30
2018-08-07T13:03:36.362Z,60.00
2018-08-07T13:06:04.115Z,54.20
2018-08-07T13:08:31.775Z,52.70
2018-08-07T13:10:59.324Z,52.50
2018-08-07T13:13:26.950Z,54.60
2018-08-07T13:15:54.557Z,52.20
2018-08-07T13:18:22.355Z,54.70
2018-08-07T13:20:50.701Z,56.60
2018-08-07T13:23:18.371Z,49.70
2018-08-07T13:25:45.955Z,56.20
2018-08-07T13:28:13.532Z,52.70
2018-08-07T13:30:41.181Z,57.20
2018-08-07T13:33:08.859Z,54.30
2018-08-07T13:35:36.419Z,55.50
2018-08-07T13:38:03.999Z,58.40
2018-08-07T13:40:31.566Z,57.20
2018-08-07T13:42:59.207Z,55.00
2018-08-07T13:45:26.864Z,58.70
2018-08-07T13:47:54.401Z,52.40
2018-08-07T13:50:23.284Z,51.70
2018-08-07T13:52:51.498Z,54.10
2018-08-07T13:55:20.223Z,51.90
2018-08-07T13:57:47.947Z,54.30
2018-08-07T14:00:18.980Z,50.00
2018-08-07T14:02:47.267Z,54.10
2018-08-07T14:05:15.841Z,51.00
2018-08-07T14:07:43.861Z,56.00
2018-08-07T14:10:12.995Z,53.20
2018-08-07T14:12:40.945Z,52.20
2018-08-07T14:15:09.581Z,55.00
2018-08-07T14:17:38.104Z,50.60
2018-08-07T14:20:07.754Z,50.30
2018-08-07T14:22:35.475Z,54.00
2018-08-07T14:25:05.304Z,49.90
2018-08-07T14:27:33.255Z,53.80
2018-08-07T14:30:01.089Z,50.70
2018-08-07T14:32:28.934Z,51.20
2018-08-07T14:34:57.013Z,55.40
2018-08-07T14:37:24.919Z,50.40
2018-08-07T14:39:52.713Z,48.70
2018-08-07T14:42:20.677Z,53.40
2018-08-07T14:44:48.713Z,55.10
2018-08-07T14:47:16.420Z,49.50
2018-08-07T14:49:44.251Z,53.90
2018-08-07T14:52:12.204Z,51.10
2018-08-07T14:54:40.013Z,53.50
2018-08-07T14:57:07.856Z,56.50
2018-08-07T14:59:35.668Z,51.20
2018-08-07T15:02:03.602Z,49.90
2018-08-07T15:04:31.475Z,50.50
2018-08-07T15:06:59.479Z,50.40
2018-08-07T15:09:27.326Z,51.80
2018-08-07T15:11:55.156Z,51.60
2018-08-07T15:14:22.993Z,50.40
2018-08-07T15:16:50.906Z,51.60
2018-08-07T15:19:19.268Z,52.80
2018-08-07T15:21:47.015Z,48.50
2018-08-07T15:24:14.691Z,52.70
2018-08-07T15:26:42.419Z,55.80
2018-08-07T15:29:10.294Z,50.90
2018-08-07T15:31:38.052Z,48.40
2018-08-07T15:34:05.738Z,53.30
2018-08-07T15:36:33.347Z,48.70
2018-08-07T15:39:00.929Z,51.00
2018-08-07T15:41:28.614Z,49.40
2018-08-07T15:43:56.242Z,49.60
2018-08-07T15:46:23.921Z,51.70
2018-08-07T15:48:52.067Z,49.00
2018-08-07T15:51:19.802Z,51.70
2018-08-07T15:53:47.305Z,52.70
2018-08-07T15:56:14.880Z,51.20
2018-08-07T15:58:42.510Z,46.30
2018-08-07T16:01:10.139Z,53.90
2018-08-07T16:03:37.973Z,53.20
2018-08-07T16:06:05.542Z,52.60
2018-08-07T16:08:33.081Z,46.80
2018-08-07T16:11:00.791Z,51.20
2018-08-07T16:13:28.441Z,47.00
2018-08-07T16:15:55.984Z,46.40
2018-08-07T16:18:23.511Z,49.40
2018-08-07T16:20:51.206Z,50.10
2018-08-07T16:23:18.774Z,51.00
2018-08-07T16:25:46.372Z,44.40
2018-08-07T16:28:13.902Z,46.70
2018-08-07T16:30:41.581Z,51.40
2018-08-07T16:33:09.302Z,45.00
2018-08-07T16:35:36.922Z,49.00
2018-08-07T16:38:04.491Z,44.90
2018-08-07T16:40:32.028Z,46.80
2018-08-07T16:42:59.793Z,46.30
2018-08-07T16:45:27.438Z,49.10
2018-08-07T16:47:55.034Z,49.40
2018-08-07T16:50:27.775Z,46.00
2018-08-07T16:52:56.223Z,48.70
2018-08-07T16:55:25.635Z,44.20
2018-08-07T16:57:53.194Z,47.10
2018-08-07T17:00:20.885Z,47.80
2018-08-07T17:02:48.512Z,48.50
2018-08-07T17:05:16.755Z,47.50
2018-08-07T17:07:46.840Z,49.40
2018-08-07T17:10:18.893Z,45.60
2018-08-07T17:12:47.772Z,45.80
2018-08-07T17:15:17.819Z,48.40
2018-08-07T17:17:45.705Z,46.70
2018-08-07T17:22:21.679Z,45.40
2018-08-07T17:24:49.950Z,50.00
2018-08-07T17:27:17.766Z,44.50
2018-08-07T17:29:45.273Z,46.50
2018-08-07T17:32:12.802Z,48.70
2018-08-07T17:34:40.394Z,45.80
2018-08-07T17:37:07.995Z,46.30
2018-08-07T17:42:09.929Z,45.50
2018-08-07T17:44:37.518Z,44.90
2018-08-07T17:47:05.254Z,47.30
2018-08-07T17:49:32.913Z,45.80
2018-08-07T17:52:00.554Z,45.80
2018-08-07T17:54:28.802Z,45.80
2018-08-07T17:57:00.379Z,45.10
2018-08-07T17:59:28.203Z,48.60
2018-08-07T18:01:55.729Z,44.90
2018-08-07T18:04:24.909Z,46.00
2018-08-07T18:06:52.519Z,46.50
2018-08-07T18:09:20.117Z,48.40
2018-08-07T18:11:47.999Z,49.00
2018-08-07T18:14:15.655Z,53.30
2018-08-07T18:16:43.184Z,61.30
2018-08-07T18:19:10.735Z,62.10
2018-08-07T18:21:38.456Z,64.30
2018-08-07T18:24:05.988Z,68.80
2018-08-07T18:26:33.521Z,60.80
2018-08-07T18:29:01.115Z,65.40
2018-08-07T18:31:28.835Z,67.90
2018-08-07T18:33:56.816Z,60.20
2018-08-07T18:36:24.583Z,60.00
2018-08-07T18:38:52.308Z,63.60
2018-08-07T18:41:19.999Z,66.60
2018-08-07T18:43:47.737Z,62.90
2018-08-07T18:46:15.845Z,68.40
2018-08-07T18:48:43.924Z,65.30
2018-08-07T18:51:12.144Z,69.40
2018-08-07T18:53:40.040Z,69.20
2018-08-07T18:56:10.975Z,71.60
2018-08-07T18:58:41.954Z,72.50
2018-08-07T19:01:16.151Z,75.10
2018-08-07T19:03:45.166Z,73.30
2018-08-07T19:06:15.237Z,72.40
2018-08-07T19:08:44.448Z,75.10
2018-08-07T19:11:12.514Z,72.10
2018-08-07T19:13:42.476Z,76.60
2018-08-07T19:16:12.207Z,79.10
2018-08-07T19:18:42.008Z,73.30
2018-08-07T19:21:12.645Z,74.40
2018-08-07T19:23:45.322Z,76.30
2018-08-07T19:26:24.126Z,75.60
2018-08-07T19:29:07.472Z,76.00
2018-08-07T19:31:45.547Z,74.20
2018-08-07T19:34:13.781Z,75.90
2018-08-07T19:36:41.840Z,77.00
2018-08-07T19:39:12.389Z,79.10
2018-08-07T19:41:55.048Z,77.90
2018-08-07T19:44:25.042Z,79.60
2018-08-07T19:46:54.564Z,82.70
2018-08-07T19:49:37.973Z,80.80
2018-08-07T19:52:09.490Z,81.40
2018-08-07T19:54:37.453Z,81.60
2018-08-07T19:57:08.255Z,84.80
2018-08-07T19:59:37.268Z,85.20
2018-08-07T20:02:05.624Z,83.70
2018-08-07T20:04:34.299Z,84.40
2018-08-07T20:07:01.978Z,84.80
2018-08-07T20:09:29.702Z,84.60
2018-08-07T20:11:57.609Z,86.30
2018-08-07T20:14:25.233Z,86.50
2018-08-07T20:16:52.842Z,84.20
2018-08-07T20:19:21.508Z,86.40
2018-08-07T20:21:51.052Z,84.80
2018-08-07T20:24:22.017Z,85.70
2018-08-07T20:26:54.149Z,87.00
2018-08-07T20:29:31.187Z,87.40
2018-08-07T20:32:01.298Z,88.70
2018-08-07T20:34:30.492Z,88.90
2018-08-07T20:37:11.193Z,88.90
2018-08-07T20:39:39.388Z,86.40
2018-08-07T20:42:07.026Z,87.10
2018-08-07T20:44:34.665Z,90.00
2018-08-07T20:47:02.200Z,90.00
2018-08-07T20:49:29.778Z,88.60
2018-08-07T20:51:57.508Z,87.30
2018-08-07T20:54:25.258Z,89.10
2018-08-07T20:56:52.851Z,88.60
2018-08-07T20:59:20.533Z,89.60
2018-08-07T21:01:48.254Z,92.00
2018-08-07T21:04:15.807Z,90.00
2018-08-07T21:06:43.570Z,91.30
2018-08-07T21:09:11.541Z,91.60
2018-08-07T21:11:39.062Z,91.00
2018-08-07T21:14:06.701Z,91.80
2018-08-07T21:16:34.419Z,91.40
2018-08-07T21:19:02.094Z,93.00
2018-08-07T21:21:29.917Z,92.40
2018-08-07T21:23:57.545Z,93.20
2018-08-07T21:26:25.415Z,93.10
2018-08-07T21:28:53.884Z,93.10
2018-08-07T21:31:21.981Z,93.90
2018-08-07T21:33:49.949Z,93.30
2018-08-07T21:36:17.856Z,93.80
2018-08-07T21:38:45.804Z,94.50
2018-08-07T21:41:13.937Z,97.00
2018-08-07T21:43:41.830Z,96.30
2018-08-07T21:46:09.918Z,94.90
2018-08-07T21:48:37.911Z,93.40
2018-08-07T21:51:06.048Z,92.90
2018-08-07T21:53:33.941Z,91.60
2018-08-07T21:56:02.312Z,90.80
2018-08-07T21:58:30.252Z,91.30
2018-08-07T22:00:58.385Z,91.10
2018-08-07T22:03:26.435Z,91.70
2018-08-07T22:05:54.444Z,91.10
2018-08-07T22:08:22.552Z,91.80
2018-08-07T22:10:50.568Z,92.20
2018-08-07T22:13:18.827Z,92.90
2018-08-07T22:15:46.799Z,93.80
2018-08-07T22:18:14.674Z,93.50
2018-08-07T22:20:42.581Z,91.90
2018-08-07T22:23:10.157Z,91.80
2018-08-07T22:25:37.797Z,91.90
2018-08-07T22:28:05.867Z,92.10
2018-08-07T22:30:33.442Z,91.10
2018-08-07T22:33:00.992Z,92.70
2018-08-07T22:35:28.515Z,92.70
2018-08-07T22:37:56.342Z,92.20
2018-08-07T22:40:24.181Z,91.50
2018-08-07T22:42:51.844Z,90.50
2018-08-07T22:45:19.516Z,90.20
2018-08-07T22:47:47.141Z,90.10
2018-08-07T22:50:16.055Z,89.00
2018-08-07T22:52:44.227Z,88.90
2018-08-07T22:55:13.401Z,89.40
2018-08-07T22:57:40.960Z,87.90
2018-08-07T23:00:11.912Z,90.50
2018-08-07T23:02:39.474Z,88.70
2018-08-07T23:05:07.587Z,87.00
2018-08-07T23:07:35.408Z,87.30
2018-08-07T23:10:03.263Z,86.80
2018-08-07T23:12:30.905Z,89.10
2018-08-07T23:14:58.507Z,89.70
2018-08-07T23:20:00.421Z,90.90
2018-08-07T23:22:28.000Z,90.40
2018-08-07T23:24:55.813Z,90.10
2018-08-07T23:27:23.381Z,90.70
2018-08-07T23:29:50.985Z,91.10
2018-08-07T23:32:18.527Z,91.20
2018-08-07T23:34:46.129Z,92.10
2018-08-07T23:37:13.836Z,91.60
2018-08-07T23:39:41.543Z,91.80
2018-08-07T23:42:09.121Z,92.10
2018-08-07T23:44:36.694Z,92.60
2018-08-07T23:47:04.323Z,92.60
2018-08-07T23:49:31.865Z,92.70
2018-08-07T23:51:59.555Z,92.60
2018-08-07T23:54:27.102Z,94.60
2018-08-07T23:56:54.733Z,93.40
2018-08-07T23:59:22.445Z,93.50
